createdAt,value
2018-08-19T00:01:45.373Z,7.87
2018-08-19T00:04:14.583Z,7.43
2018-08-19T00:06:43.872Z,8.00
2018-08-19T00:09:12.452Z,7.50
2018-08-19T00:11:41.620Z,7.57
2018-08-19T00:14:24.774Z,8.37
2018-08-19T00:16:53.839Z,7.90
2018-08-19T00:19:22.247Z,7.27
2018-08-19T00:21:50.778Z,8.20
2018-08-19T00:24:19.140Z,8.30
2018-08-19T00:26:47.699Z,7.60
2018-08-19T00:29:22.559Z,7.93
2018-08-19T00:31:51.625Z,8.10
2018-08-19T00:34:30.446Z,7.40
2018-08-19T00:36:59.818Z,7.77
2018-08-19T00:39:28.233Z,7.17
2018-08-19T00:41:57.153Z,7.90
2018-08-19T00:44:25.608Z,8.13
2018-08-19T00:46:55.345Z,7.70
2018-08-19T00:49:23.792Z,7.67
2018-08-19T00:51:59.239Z,7.90
2018-08-19T00:54:28.743Z,7.97
2018-08-19T00:56:58.253Z,8.27
2018-08-19T00:59:28.369Z,7.77
2018-08-19T01:01:56.807Z,7.70
2018-08-19T01:04:25.536Z,8.20
2018-08-19T01:06:55.043Z,7.90
2018-08-19T01:09:30.720Z,8.00
2018-08-19T01:11:59.278Z,7.47
2018-08-19T01:14:27.658Z,7.23
2018-08-19T01:16:56.139Z,8.27
2018-08-19T01:19:24.988Z,8.13
2018-08-19T01:21:54.127Z,8.03
2018-08-19T01:24:23.400Z,7.63
2018-08-19T01:26:51.863Z,7.50
2018-08-19T01:29:37.291Z,7.73
2018-08-19T01:32:12.009Z,8.33
2018-08-19T01:34:43.649Z,8.17
2018-08-19T01:37:12.488Z,8.00
2018-08-19T01:39:40.942Z,8.47
2018-08-19T01:42:09.728Z,8.47
2018-08-19T01:44:38.208Z,8.23
2018-08-19T01:47:06.586Z,7.87
2018-08-19T01:49:34.998Z,8.10
2018-08-19T01:52:03.549Z,7.80
2018-08-19T01:54:32.030Z,7.33
2018-08-19T01:57:02.383Z,8.00
2018-08-19T01:59:33.092Z,7.27
2018-08-19T02:02:03.641Z,7.47
2018-08-19T02:04:33.255Z,7.33
2018-08-19T02:07:02.127Z,7.03
2018-08-19T02:09:30.562Z,7.20
2018-08-19T02:12:00.010Z,6.53
2018-08-19T02:14:28.409Z,7.10
2018-08-19T02:16:57.477Z,7.50
2018-08-19T02:19:25.855Z,6.63
2018-08-19T02:21:54.539Z,6.73
2018-08-19T02:24:23.635Z,6.57
2018-08-19T02:26:52.015Z,6.37
2018-08-19T02:29:36.983Z,6.03
2018-08-19T02:32:10.676Z,6.03
2018-08-19T02:34:40.398Z,6.30
2018-08-19T02:37:10.108Z,6.60
2018-08-19T02:39:40.948Z,6.20
2018-08-19T02:42:27.447Z,6.13
2018-08-19T02:45:03.335Z,6.23
2018-08-19T02:47:32.403Z,5.70
2018-08-19T02:50:00.880Z,6.00
2018-08-19T02:52:31.417Z,5.87
2018-08-19T02:55:02.039Z,5.40
2018-08-19T02:57:31.753Z,5.67
2018-08-19T03:00:01.162Z,5.80
2018-08-19T03:02:34.415Z,5.83
2018-08-19T03:05:04.773Z,6.00
2018-08-19T03:07:33.386Z,6.60
2018-08-19T03:10:09.107Z,5.77
2018-08-19T03:12:37.801Z,5.90
2018-08-19T03:15:08.764Z,6.23
2018-08-19T03:17:37.158Z,6.00
2018-08-19T03:20:08.494Z,5.53
2018-08-19T03:22:36.841Z,5.63
2018-08-19T03:25:05.698Z,6.40
2018-08-19T03:27:34.080Z,5.83
2018-08-19T03:30:03.627Z,5.20
2018-08-19T03:32:31.996Z,5.43
2018-08-19T03:35:34.607Z,5.60
2018-08-19T03:38:11.197Z,5.80
2018-08-19T03:40:39.524Z,5.53
2018-08-19T03:43:08.041Z,6.03
2018-08-19T03:45:36.382Z,5.90
2018-08-19T03:48:05.442Z,5.73
2018-08-19T03:50:36.826Z,5.70
2018-08-19T03:53:05.365Z,5.60
2018-08-19T03:55:34.413Z,5.40
2018-08-19T03:58:04.926Z,5.70
2018-08-19T04:00:34.444Z,5.87
2018-08-19T04:03:12.073Z,5.30
2018-08-19T04:05:44.891Z,5.07
2018-08-19T04:08:14.287Z,5.87
2018-08-19T04:10:43.837Z,5.57
2018-08-19T04:13:26.413Z,5.10
2018-08-19T04:15:56.976Z,5.03
2018-08-19T04:18:30.751Z,5.50
2018-08-19T04:21:00.657Z,4.87
2018-08-19T04:23:29.746Z,5.23
2018-08-19T04:25:58.069Z,4.77
2018-08-19T04:28:26.408Z,5.40
2018-08-19T04:30:56.671Z,4.60
2018-08-19T04:33:30.210Z,4.93
2018-08-19T04:35:58.600Z,4.80
2018-08-19T04:38:28.084Z,4.97
2018-08-19T04:40:57.046Z,4.40
2018-08-19T04:43:28.393Z,4.27
2018-08-19T04:45:56.771Z,4.70
2018-08-19T04:48:26.593Z,4.70
2018-08-19T04:50:56.297Z,4.17
2018-08-19T04:53:24.680Z,4.37
2018-08-19T04:55:53.872Z,4.20
2018-08-19T04:58:22.292Z,4.60
2018-08-19T05:00:50.702Z,3.97
2018-08-19T05:03:19.119Z,4.13
2018-08-19T05:05:47.492Z,4.13
2018-08-19T05:08:15.984Z,3.93
2018-08-19T05:10:44.254Z,3.90
2018-08-19T05:13:13.141Z,3.47
2018-08-19T05:15:42.344Z,3.80
2018-08-19T05:18:10.748Z,4.10
2018-08-19T05:20:39.203Z,3.87
2018-08-19T05:23:08.092Z,3.90
2018-08-19T05:25:51.189Z,4.33
2018-08-19T05:28:19.749Z,3.97
2018-08-19T05:30:48.281Z,3.70
2018-08-19T05:33:16.616Z,3.60
2018-08-19T05:35:44.932Z,3.90
2018-08-19T05:38:13.328Z,3.77
2018-08-19T05:40:46.852Z,3.53
2018-08-19T05:43:15.252Z,3.53
2018-08-19T05:45:50.665Z,3.40
2018-08-19T05:48:19.015Z,3.70
2018-08-19T05:50:47.350Z,3.87
2018-08-19T05:53:15.699Z,3.50
2018-08-19T05:55:44.199Z,3.70
2018-08-19T05:58:12.533Z,3.93
2018-08-19T06:00:44.084Z,3.67
2018-08-19T06:03:12.435Z,3.10
2018-08-19T06:05:40.784Z,3.57
2018-08-19T06:08:10.148Z,2.57
2018-08-19T06:10:39.064Z,3.03
2018-08-19T06:13:08.678Z,2.90
2018-08-19T06:15:37.379Z,3.40
2018-08-19T06:18:05.868Z,3.10
2018-08-19T06:20:34.535Z,3.50
2018-08-19T06:23:02.909Z,3.00
2018-08-19T06:25:31.287Z,3.00
2018-08-19T06:27:59.835Z,3.33
2018-08-19T06:30:28.319Z,2.97
2018-08-19T06:32:56.699Z,2.67
2018-08-19T06:35:25.077Z,3.03
2018-08-19T06:37:53.504Z,3.00
2018-08-19T06:40:23.169Z,2.40
2018-08-19T06:42:51.521Z,2.80
2018-08-19T06:45:19.922Z,2.83
2018-08-19T06:47:48.339Z,2.60
2018-08-19T06:50:39.040Z,2.83
2018-08-19T06:53:07.435Z,2.87
2018-08-19T06:55:36.277Z,2.30
2018-08-19T06:58:04.939Z,2.50
2018-08-19T07:00:33.732Z,2.13
2018-08-19T07:03:03.541Z,2.40
2018-08-19T07:05:32.554Z,2.50
2018-08-19T07:08:01.161Z,2.43
2018-08-19T07:10:38.256Z,2.33
2018-08-19T07:13:09.170Z,2.10
2018-08-19T07:15:38.746Z,2.73
2018-08-19T07:18:08.747Z,2.20
2018-08-19T07:20:37.590Z,2.20
2018-08-19T07:23:06.411Z,2.00
2018-08-19T07:25:34.796Z,2.23
2018-08-19T07:28:03.159Z,2.43
2018-08-19T07:30:31.562Z,2.30
2018-08-19T07:32:59.948Z,2.05
2018-08-19T07:35:28.299Z,2.42
2018-08-19T07:37:56.649Z,2.12
2018-08-19T07:40:25.029Z,1.95
2018-08-19T07:42:53.376Z,1.95
2018-08-19T07:45:21.757Z,1.75
2018-08-19T07:47:50.115Z,1.70
2018-08-19T07:50:18.480Z,1.77
2018-08-19T07:52:46.856Z,2.05
2018-08-19T07:55:15.242Z,1.75
2018-08-19T07:57:43.654Z,1.77
2018-08-19T08:00:12.673Z,5.42
2018-08-19T08:02:41.107Z,4.67
2018-08-19T08:05:10.661Z,2.00
2018-08-19T08:07:43.338Z,1.77
2018-08-19T08:10:11.777Z,2.15
2018-08-19T08:12:40.212Z,3.58
2018-08-19T08:15:08.883Z,1.70
2018-08-19T08:17:38.376Z,1.70
2018-08-19T08:20:07.539Z,1.90
2018-08-19T08:22:36.874Z,2.00
2018-08-19T08:25:07.247Z,2.60
2018-08-19T08:27:36.718Z,2.85
2018-08-19T08:30:09.697Z,3.37
2018-08-19T08:32:38.519Z,3.80
2018-08-19T08:35:07.843Z,4.85
2018-08-19T08:37:36.240Z,7.25
2018-08-19T08:40:10.493Z,4.92
2018-08-19T08:42:43.336Z,5.12
2018-08-19T08:45:13.106Z,5.00
2018-08-19T08:47:41.745Z,5.60
2018-08-19T08:50:11.472Z,6.30
2018-08-19T08:52:42.306Z,5.50
2018-08-19T08:55:11.494Z,5.17
2018-08-19T08:57:39.860Z,4.87
2018-08-19T09:00:09.812Z,4.92
2018-08-19T09:02:38.194Z,5.53
2018-08-19T09:05:09.208Z,5.10
2018-08-19T09:07:37.614Z,5.60
2018-08-19T09:10:06.075Z,5.50
2018-08-19T09:12:45.213Z,5.65
2018-08-19T09:15:13.632Z,5.33
2018-08-19T09:17:42.062Z,6.55
2018-08-19T09:20:11.155Z,7.50
2018-08-19T09:22:39.608Z,7.33
2018-08-19T09:25:09.080Z,7.60
2018-08-19T09:27:38.339Z,8.85
2018-08-19T09:30:07.771Z,9.45
2018-08-19T09:32:50.243Z,9.80
2018-08-19T09:35:18.620Z,10.60
2018-08-19T09:37:47.005Z,11.10
2018-08-19T09:40:15.401Z,10.80
2018-08-19T09:42:43.773Z,11.20
2018-08-19T09:45:12.153Z,11.97
2018-08-19T09:47:40.602Z,11.45
2018-08-19T09:50:08.996Z,11.63
2018-08-19T09:52:37.374Z,11.75
2018-08-19T09:55:09.852Z,12.35
2018-08-19T09:57:42.697Z,12.25
2018-08-19T10:00:12.719Z,12.63
2018-08-19T10:02:46.474Z,12.23
2018-08-19T10:05:19.048Z,11.30
2018-08-19T10:07:47.471Z,11.00
2018-08-19T10:10:15.898Z,11.35
2018-08-19T10:12:45.042Z,10.43
2018-08-19T10:15:13.437Z,10.30
2018-08-19T10:17:41.856Z,10.53
2018-08-19T10:20:10.252Z,9.88
2018-08-19T10:22:41.944Z,8.83
2018-08-19T10:25:14.979Z,7.72
2018-08-19T10:27:44.963Z,7.58
2018-08-19T10:30:13.615Z,6.53
2018-08-19T10:32:42.075Z,6.35
2018-08-19T10:35:15.729Z,5.70
2018-08-19T10:37:44.123Z,5.17
2018-08-19T10:40:12.545Z,5.20
2018-08-19T10:42:41.159Z,5.12
2018-08-19T10:45:14.932Z,4.42
2018-08-19T10:47:43.615Z,4.58
2018-08-19T10:50:11.979Z,4.08
2018-08-19T10:52:41.927Z,3.87
2018-08-19T10:55:11.454Z,3.60
2018-08-19T10:57:40.033Z,3.60
2018-08-19T11:00:13.601Z,3.50
2018-08-19T11:02:42.224Z,2.27
2018-08-19T11:05:10.699Z,2.17
2018-08-19T11:07:39.073Z,2.00
2018-08-19T11:10:28.579Z,2.17
2018-08-19T11:12:58.295Z,1.75
2018-08-19T11:15:53.336Z,1.70
2018-08-19T11:18:30.573Z,1.90
2018-08-19T11:21:05.257Z,1.90
2018-08-19T11:23:40.886Z,2.10
2018-08-19T11:26:09.793Z,1.95
2018-08-19T11:28:40.360Z,1.80
2018-08-19T11:31:22.092Z,1.70
2018-08-19T11:33:51.332Z,1.98
2018-08-19T11:36:20.624Z,2.90
2018-08-19T11:38:51.986Z,2.62
2018-08-19T11:41:20.892Z,1.82
2018-08-19T11:43:50.182Z,4.85
2018-08-19T11:46:18.564Z,2.20
2018-08-19T11:48:54.944Z,2.00
2018-08-19T11:51:37.575Z,1.70
2018-08-19T11:54:06.033Z,2.20
2018-08-19T11:56:34.561Z,2.10
2018-08-19T11:59:02.993Z,2.10
2018-08-19T12:01:31.389Z,1.60
2018-08-19T12:04:09.248Z,2.03
2018-08-19T12:06:37.616Z,1.97
2018-08-19T12:09:08.688Z,2.03
2018-08-19T12:11:38.420Z,2.13
2018-08-19T12:14:08.721Z,1.80
2018-08-19T12:16:43.374Z,5.30
2018-08-19T12:19:17.057Z,2.60
2018-08-19T12:21:51.277Z,2.30
2018-08-19T12:24:22.670Z,2.37
2018-08-19T12:26:53.139Z,1.87
2018-08-19T12:29:22.029Z,2.17
2018-08-19T12:31:52.268Z,5.03
2018-08-19T12:34:20.646Z,2.10
2018-08-19T12:36:49.060Z,1.70
2018-08-19T12:39:17.521Z,1.80
2018-08-19T12:41:51.018Z,2.23
2018-08-19T12:44:19.388Z,2.30
2018-08-19T12:47:02.919Z,1.97
2018-08-19T12:49:35.079Z,1.90
2018-08-19T12:52:03.530Z,3.00
2018-08-19T12:54:31.963Z,3.37
2018-08-19T12:57:00.391Z,2.67
2018-08-19T12:59:28.840Z,2.20
2018-08-19T13:01:57.201Z,1.90
2018-08-19T13:04:25.583Z,2.23
2018-08-19T13:07:07.986Z,2.07
2018-08-19T13:09:36.429Z,1.90
2018-08-19T13:12:06.872Z,2.10
2018-08-19T13:14:35.277Z,2.23
2018-08-19T13:17:03.700Z,2.17
2018-08-19T13:19:32.637Z,2.30
2018-08-19T13:22:01.828Z,2.17
2018-08-19T13:24:34.371Z,2.17
2018-08-19T13:27:03.097Z,2.17
2018-08-19T13:29:31.871Z,4.23
2018-08-19T13:32:00.265Z,2.40
2018-08-19T13:34:29.047Z,3.00
2018-08-19T13:36:57.974Z,2.93
2018-08-19T13:39:26.923Z,2.50
2018-08-19T13:41:55.517Z,3.17
2018-08-19T13:44:23.988Z,2.27
2018-08-19T13:46:52.380Z,2.40
2018-08-19T13:49:23.592Z,2.43
2018-08-19T13:51:52.200Z,2.07
2018-08-19T13:54:21.602Z,2.53
2018-08-19T13:56:50.037Z,2.53
2018-08-19T13:59:18.680Z,2.63
2018-08-19T14:01:47.043Z,2.90
2018-08-19T14:04:15.527Z,1.93
2018-08-19T14:06:45.047Z,2.53
2018-08-19T14:09:13.948Z,2.03
2018-08-19T14:11:42.381Z,2.40
2018-08-19T14:14:11.408Z,2.00
2018-08-19T14:16:39.845Z,2.70
2018-08-19T14:19:08.706Z,2.30
2018-08-19T14:21:37.059Z,2.90
2018-08-19T14:24:05.500Z,2.57
2018-08-19T14:26:34.453Z,2.23
2018-08-19T14:29:03.004Z,2.00
2018-08-19T14:31:31.688Z,2.20
2018-08-19T14:34:00.350Z,2.20
2018-08-19T14:36:28.814Z,2.30
2018-08-19T14:38:57.215Z,2.17
2018-08-19T14:41:25.596Z,2.57
2018-08-19T14:44:00.347Z,2.80
2018-08-19T14:46:29.636Z,2.60
2018-08-19T14:48:59.160Z,2.80
2018-08-19T14:51:28.687Z,2.80
2018-08-19T14:54:20.671Z,2.40
2018-08-19T14:56:49.225Z,2.50
2018-08-19T14:59:20.122Z,2.80
2018-08-19T15:01:48.460Z,2.37
2018-08-19T15:04:17.795Z,2.57
2018-08-19T15:06:47.101Z,3.00
2018-08-19T15:09:28.163Z,2.63
2018-08-19T15:12:05.161Z,2.90
2018-08-19T15:14:34.834Z,3.00
2018-08-19T15:17:03.197Z,3.10
2018-08-19T15:19:31.550Z,2.50
2018-08-19T15:21:59.896Z,3.70
2018-08-19T15:24:28.204Z,3.30
2018-08-19T15:26:56.525Z,2.90
2018-08-19T15:29:30.670Z,3.03
2018-08-19T15:32:02.465Z,2.93
2018-08-19T15:34:30.839Z,3.07
2018-08-19T15:36:59.215Z,2.70
2018-08-19T15:39:27.558Z,2.97
2018-08-19T15:41:55.899Z,3.10
2018-08-19T15:44:24.245Z,2.70
2018-08-19T15:46:52.627Z,2.57
2018-08-19T15:49:22.204Z,3.00
2018-08-19T15:51:50.578Z,3.00
2018-08-19T15:54:18.916Z,3.17
2018-08-19T15:56:47.297Z,3.70
2018-08-19T15:59:15.704Z,6.50
2018-08-19T16:01:44.239Z,3.47
2018-08-19T16:04:19.720Z,3.03
2018-08-19T16:06:50.386Z,3.13
2018-08-19T16:09:21.126Z,3.30
2018-08-19T16:11:50.325Z,3.27
2018-08-19T16:14:30.439Z,3.40
2018-08-19T16:17:00.089Z,3.23
2018-08-19T16:19:28.458Z,3.47
2018-08-19T16:21:57.953Z,3.07
2018-08-19T16:24:26.859Z,3.13
2018-08-19T16:26:55.242Z,4.00
2018-08-19T16:29:23.619Z,3.57
2018-08-19T16:31:52.055Z,4.60
2018-08-19T16:34:20.375Z,3.60
2018-08-19T16:36:49.047Z,3.87
2018-08-19T16:39:18.313Z,5.87
2018-08-19T16:41:46.616Z,5.50
2018-08-19T16:44:14.993Z,9.83
2018-08-19T16:46:43.359Z,9.33
2018-08-19T16:49:11.727Z,6.53
2018-08-19T16:51:40.056Z,4.83
2018-08-19T16:54:08.729Z,5.30
2018-08-19T16:56:37.047Z,5.53
2018-08-19T16:59:05.441Z,4.40
2018-08-19T17:01:33.778Z,4.70
2018-08-19T17:04:02.127Z,6.03
2018-08-19T17:06:30.477Z,5.10
2018-08-19T17:08:58.804Z,3.57
2018-08-19T17:11:27.139Z,4.07
2018-08-19T17:13:55.474Z,3.90
2018-08-19T17:16:23.793Z,3.50
2018-08-19T17:18:52.124Z,3.87
2018-08-19T17:21:20.470Z,3.90
2018-08-19T17:23:49.030Z,3.77
2018-08-19T17:26:23.739Z,3.70
2018-08-19T17:28:52.396Z,3.77
2018-08-19T17:31:21.064Z,4.27
2018-08-19T17:33:49.412Z,3.33
2018-08-19T17:36:26.873Z,3.10
2018-08-19T17:38:55.214Z,3.07
2018-08-19T17:41:23.581Z,4.57
2018-08-19T17:43:51.957Z,6.40
2018-08-19T17:46:20.567Z,3.60
2018-08-19T17:48:48.921Z,3.20
2018-08-19T17:51:35.528Z,3.13
2018-08-19T17:54:07.174Z,3.17
2018-08-19T17:56:35.533Z,2.93
2018-08-19T17:59:04.969Z,2.63
2018-08-19T18:01:33.286Z,2.93
2018-08-19T18:04:01.624Z,3.23
2018-08-19T18:06:29.996Z,3.00
2018-08-19T18:08:58.342Z,3.07
2018-08-19T18:11:26.759Z,3.03
2018-08-19T18:13:55.139Z,3.80
2018-08-19T18:16:23.516Z,3.33
2018-08-19T18:18:51.995Z,3.53
2018-08-19T18:21:20.335Z,3.40
2018-08-19T18:23:49.598Z,3.33
2018-08-19T18:26:17.953Z,3.13
2018-08-19T18:28:48.045Z,3.40
2018-08-19T18:31:20.517Z,3.60
2018-08-19T18:34:07.152Z,3.80
2018-08-19T18:36:36.172Z,3.63
2018-08-19T18:39:06.511Z,4.67
2018-08-19T18:41:37.139Z,5.97
2018-08-19T18:44:06.949Z,21.17
2018-08-19T18:46:35.733Z,34.70
2018-08-19T18:49:12.615Z,22.13
2018-08-19T18:51:42.440Z,7.20
2018-08-19T18:54:32.543Z,5.57
2018-08-19T18:57:03.963Z,5.10
2018-08-19T18:59:32.318Z,5.13
2018-08-19T19:02:01.952Z,5.37
2018-08-19T19:04:30.322Z,4.73
2018-08-19T19:06:58.753Z,7.13
2018-08-19T19:09:39.111Z,5.40
2018-08-19T19:12:07.520Z,6.53
2018-08-19T19:14:36.178Z,5.63
2018-08-19T19:17:04.541Z,5.50
2018-08-19T19:19:37.036Z,4.90
2018-08-19T19:22:05.359Z,5.90
2018-08-19T19:24:37.743Z,6.23
2018-08-19T19:27:06.211Z,6.77
2018-08-19T19:29:34.571Z,6.73
2018-08-19T19:32:14.248Z,6.07
2018-08-19T19:34:42.594Z,5.90
2018-08-19T19:37:11.071Z,5.07
2018-08-19T19:39:39.525Z,5.17
2018-08-19T19:42:10.822Z,11.10
2018-08-19T19:44:39.318Z,22.87
2018-08-19T19:47:08.994Z,23.07
2018-08-19T19:49:49.400Z,13.93
2018-08-19T19:52:17.774Z,7.83
2018-08-19T19:54:46.096Z,7.10
2018-08-19T19:57:14.431Z,6.33
2018-08-19T19:59:42.768Z,6.13
2018-08-19T20:02:17.054Z,5.57
2018-08-19T20:04:45.771Z,5.47
2018-08-19T20:07:14.379Z,5.67
2018-08-19T20:09:42.840Z,5.60
2018-08-19T20:12:16.524Z,5.73
2018-08-19T20:14:49.243Z,5.50
2018-08-19T20:17:18.265Z,5.73
2018-08-19T20:19:46.651Z,7.70
2018-08-19T20:22:17.097Z,10.27
2018-08-19T20:24:45.508Z,11.00
2018-08-19T20:27:14.013Z,10.40
2018-08-19T20:29:42.330Z,8.60
2018-08-19T20:32:10.672Z,7.27
2018-08-19T20:34:39.557Z,6.93
2018-08-19T20:37:07.876Z,7.13
2018-08-19T20:39:36.207Z,7.20
2018-08-19T20:42:04.562Z,7.00
2018-08-19T20:44:32.892Z,6.80
2018-08-19T20:47:01.250Z,7.30
2018-08-19T20:49:29.596Z,7.00
2018-08-19T20:51:57.994Z,6.80
2018-08-19T20:54:26.328Z,6.17
2018-08-19T20:56:55.304Z,6.93
2018-08-19T20:59:28.958Z,6.53
2018-08-19T21:01:57.303Z,6.90
2018-08-19T21:04:25.630Z,7.27
2018-08-19T21:06:54.203Z,6.93
2018-08-19T21:09:22.724Z,7.00
2018-08-19T21:11:51.458Z,7.00
2018-08-19T21:14:20.454Z,7.47
2018-08-19T21:16:49.184Z,7.00
2018-08-19T21:19:17.526Z,7.13
2018-08-19T21:21:45.848Z,6.43
2018-08-19T21:24:14.247Z,6.70
2018-08-19T21:26:45.961Z,7.03
2018-08-19T21:29:14.278Z,7.03
2018-08-19T21:31:42.625Z,7.80
2018-08-19T21:34:10.972Z,7.60
2018-08-19T21:36:39.316Z,7.23
2018-08-19T21:39:08.459Z,7.63
2018-08-19T21:41:46.762Z,7.20
2018-08-19T21:44:15.574Z,7.23
2018-08-19T21:46:43.921Z,7.50
2018-08-19T21:49:12.642Z,6.83
2018-08-19T21:51:41.059Z,6.73
2018-08-19T21:54:11.185Z,7.63
2018-08-19T21:56:39.823Z,7.00
2018-08-19T21:59:13.604Z,7.87
2018-08-19T22:01:50.148Z,7.73
2018-08-19T22:04:18.933Z,7.60
2018-08-19T22:06:47.498Z,7.20
2018-08-19T22:09:29.705Z,7.60
2018-08-19T22:11:59.074Z,7.87
2018-08-19T22:14:27.598Z,7.77
2018-08-19T22:16:58.538Z,7.50
2018-08-19T22:19:27.088Z,7.67
2018-08-19T22:21:55.491Z,7.57
2018-08-19T22:24:23.884Z,7.43
2018-08-19T22:26:52.415Z,7.23
2018-08-19T22:29:21.731Z,7.73
2018-08-19T22:31:50.663Z,7.40
2018-08-19T22:34:19.039Z,7.03
2018-08-19T22:36:47.470Z,7.50
2018-08-19T22:39:17.129Z,7.30
2018-08-19T22:41:48.614Z,7.00
2018-08-19T22:44:17.364Z,6.53
2018-08-19T22:46:45.849Z,7.63
2018-08-19T22:49:14.208Z,6.37
2018-08-19T22:51:42.586Z,7.30
2018-08-19T22:54:10.919Z,7.13
2018-08-19T22:56:39.256Z,7.00
2018-08-19T22:59:07.680Z,6.80
2018-08-19T23:01:41.376Z,6.60
2018-08-19T23:04:09.730Z,7.07
2018-08-19T23:06:38.064Z,6.80
2018-08-19T23:09:07.223Z,7.00
2018-08-19T23:11:41.000Z,7.27
2018-08-19T23:14:20.672Z,6.93
2018-08-19T23:16:48.982Z,6.97
2018-08-19T23:19:19.560Z,7.37
2018-08-19T23:21:47.899Z,6.53
2018-08-19T23:24:16.246Z,6.67
2018-08-19T23:26:44.547Z,6.47
2018-08-19T23:29:12.880Z,7.07
2018-08-19T23:31:41.253Z,7.00
2018-08-19T23:34:09.629Z,7.07
2018-08-19T23:36:37.947Z,7.23
2018-08-19T23:39:08.089Z,6.40
2018-08-19T23:41:36.406Z,6.77
2018-08-19T23:44:04.775Z,6.70
2018-08-19T23:46:33.141Z,7.17
2018-08-19T23:49:01.477Z,6.30
2018-08-19T23:51:30.799Z,6.80
2018-08-19T23:53:59.989Z,6.50
2018-08-19T23:56:28.660Z,6.50
2018-08-19T23:58:57.377Z,6.60
